sensor_id;sensor_type;location;lat;lon;timestamp;P1;durP1;ratioP1;P2;durP2;ratioP2
75700;SDS011;64321;48.796;44.740;2023-08-30T00:00:47;4.40;;;1.25;;
75700;SDS011;64321;48.796;44.740;2023-08-30T00:05:50;4.20;;;0.90;;
75700;SDS011;64321;48.796;44.740;2023-08-30T00:10:52;2.42;;;0.95;;
75700;SDS011;64321;48.796;44.740;2023-08-30T00:15:54;3.53;;;1.15;;
75700;SDS011;64321;48.796;44.740;2023-08-30T00:20:56;3.17;;;0.90;;
75700;SDS011;64321;48.796;44.740;2023-08-30T00:25:59;2.60;;;0.88;;
75700;SDS011;64321;48.796;44.740;2023-08-30T00:31:01;2.53;;;0.93;;
75700;SDS011;64321;48.796;44.740;2023-08-30T00:36:03;3.17;;;1.02;;
75700;SDS011;64321;48.796;44.740;2023-08-30T00:41:05;4.45;;;1.00;;
75700;SDS011;64321;48.796;44.740;2023-08-30T00:46:07;5.30;;;1.13;;
75700;SDS011;64321;48.796;44.740;2023-08-30T00:51:10;5.15;;;1.10;;
75700;SDS011;64321;48.796;44.740;2023-08-30T01:02:11;3.13;;;1.00;;
75700;SDS011;64321;48.796;44.740;2023-08-30T01:07:14;3.03;;;1.10;;
75700;SDS011;64321;48.796;44.740;2023-08-30T01:12:17;3.50;;;1.13;;
75700;SDS011;64321;48.796;44.740;2023-08-30T01:17:22;3.72;;;0.95;;
75700;SDS011;64321;48.796;44.740;2023-08-30T01:22:30;4.22;;;1.45;;
75700;SDS011;64321;48.796;44.740;2023-08-30T01:27:39;3.10;;;1.10;;
75700;SDS011;64321;48.796;44.740;2023-08-30T01:32:42;5.40;;;1.20;;
75700;SDS011;64321;48.796;44.740;2023-08-30T01:37:45;4.90;;;1.15;;
75700;SDS011;64321;48.796;44.740;2023-08-30T01:42:48;4.60;;;1.00;;
75700;SDS011;64321;48.796;44.740;2023-08-30T01:47:51;3.95;;;1.17;;
75700;SDS011;64321;48.796;44.740;2023-08-30T01:52:54;3.78;;;1.23;;
75700;SDS011;64321;48.796;44.740;2023-08-30T01:57:58;4.10;;;0.80;;
75700;SDS011;64321;48.796;44.740;2023-08-30T02:03:06;5.97;;;1.63;;
75700;SDS011;64321;48.796;44.740;2023-08-30T02:08:13;5.70;;;1.02;;
75700;SDS011;64321;48.796;44.740;2023-08-30T02:13:17;4.07;;;1.27;;
75700;SDS011;64321;48.796;44.740;2023-08-30T02:18:20;5.25;;;1.85;;
75700;SDS011;64321;48.796;44.740;2023-08-30T02:23:26;3.70;;;1.27;;
75700;SDS011;64321;48.796;44.740;2023-08-30T02:28:29;3.95;;;1.17;;
75700;SDS011;64321;48.796;44.740;2023-08-30T02:33:31;3.05;;;1.10;;
75700;SDS011;64321;48.796;44.740;2023-08-30T02:38:33;4.93;;;1.10;;
75700;SDS011;64321;48.796;44.740;2023-08-30T02:43:35;3.80;;;0.85;;
75700;SDS011;64321;48.796;44.740;2023-08-30T02:48:38;3.63;;;0.98;;
75700;SDS011;64321;48.796;44.740;2023-08-30T02:53:42;3.35;;;1.10;;
75700;SDS011;64321;48.796;44.740;2023-08-30T02:58:44;4.47;;;1.33;;
75700;SDS011;64321;48.796;44.740;2023-08-30T03:03:47;4.50;;;1.20;;
75700;SDS011;64321;48.796;44.740;2023-08-30T03:08:55;4.57;;;1.17;;
75700;SDS011;64321;48.796;44.740;2023-08-30T03:13:58;2.85;;;0.80;;
75700;SDS011;64321;48.796;44.740;2023-08-30T03:19:01;7.70;;;1.10;;
75700;SDS011;64321;48.796;44.740;2023-08-30T03:24:04;4.93;;;1.40;;
75700;SDS011;64321;48.796;44.740;2023-08-30T03:29:07;3.67;;;1.33;;
75700;SDS011;64321;48.796;44.740;2023-08-30T03:34:09;4.72;;;1.35;;
75700;SDS011;64321;48.796;44.740;2023-08-30T03:39:11;7.07;;;1.40;;
75700;SDS011;64321;48.796;44.740;2023-08-30T03:44:14;4.97;;;1.80;;
75700;SDS011;64321;48.796;44.740;2023-08-30T03:49:17;4.82;;;1.13;;
75700;SDS011;64321;48.796;44.740;2023-08-30T03:54:19;5.18;;;1.23;;
75700;SDS011;64321;48.796;44.740;2023-08-30T03:59:22;6.10;;;1.60;;
75700;SDS011;64321;48.796;44.740;2023-08-30T04:04:27;9.02;;;1.50;;
75700;SDS011;64321;48.796;44.740;2023-08-30T04:09:29;7.22;;;2.03;;
75700;SDS011;64321;48.796;44.740;2023-08-30T04:14:32;7.00;;;1.83;;
75700;SDS011;64321;48.796;44.740;2023-08-30T04:19:34;5.20;;;1.90;;
75700;SDS011;64321;48.796;44.740;2023-08-30T04:24:36;4.60;;;1.33;;
75700;SDS011;64321;48.796;44.740;2023-08-30T04:29:38;3.75;;;1.23;;
75700;SDS011;64321;48.796;44.740;2023-08-30T04:34:40;3.75;;;0.95;;
75700;SDS011;64321;48.796;44.740;2023-08-30T04:39:43;3.97;;;1.42;;
75700;SDS011;64321;48.796;44.740;2023-08-30T04:44:48;6.43;;;1.33;;
75700;SDS011;64321;48.796;44.740;2023-08-30T04:49:51;7.40;;;1.85;;
75700;SDS011;64321;48.796;44.740;2023-08-30T04:54:54;5.68;;;1.20;;
75700;SDS011;64321;48.796;44.740;2023-08-30T04:59:57;4.00;;;1.55;;
75700;SDS011;64321;48.796;44.740;2023-08-30T05:05:00;10.90;;;2.60;;
75700;SDS011;64321;48.796;44.740;2023-08-30T05:10:05;5.05;;;1.50;;
75700;SDS011;64321;48.796;44.740;2023-08-30T05:15:08;3.75;;;1.08;;
75700;SDS011;64321;48.796;44.740;2023-08-30T05:20:11;5.05;;;1.58;;
75700;SDS011;64321;48.796;44.740;2023-08-30T05:25:13;7.45;;;3.10;;
75700;SDS011;64321;48.796;44.740;2023-08-30T05:30:15;5.95;;;1.40;;
75700;SDS011;64321;48.796;44.740;2023-08-30T05:35:18;4.15;;;1.63;;
75700;SDS011;64321;48.796;44.740;2023-08-30T05:40:39;6.18;;;1.85;;
75700;SDS011;64321;48.796;44.740;2023-08-30T05:45:45;4.60;;;1.48;;
75700;SDS011;64321;48.796;44.740;2023-08-30T05:50:48;5.93;;;2.28;;
75700;SDS011;64321;48.796;44.740;2023-08-30T05:55:51;7.43;;;2.60;;
75700;SDS011;64321;48.796;44.740;2023-08-30T06:00:53;5.80;;;1.60;;
75700;SDS011;64321;48.796;44.740;2023-08-30T06:05:55;6.18;;;1.80;;
75700;SDS011;64321;48.796;44.740;2023-08-30T06:10:57;3.83;;;1.10;;
75700;SDS011;64321;48.796;44.740;2023-08-30T06:15:59;4.05;;;0.52;;
75700;SDS011;64321;48.796;44.740;2023-08-30T06:21:02;2.22;;;0.80;;
75700;SDS011;64321;48.796;44.740;2023-08-30T06:26:05;2.95;;;0.70;;
75700;SDS011;64321;48.796;44.740;2023-08-30T06:31:08;3.70;;;0.63;;
75700;SDS011;64321;48.796;44.740;2023-08-30T06:36:10;2.30;;;0.98;;
75700;SDS011;64321;48.796;44.740;2023-08-30T06:41:13;1.65;;;0.77;;
75700;SDS011;64321;48.796;44.740;2023-08-30T06:46:15;3.83;;;0.95;;
75700;SDS011;64321;48.796;44.740;2023-08-30T06:51:18;2.50;;;0.80;;
75700;SDS011;64321;48.796;44.740;2023-08-30T06:56:20;3.22;;;0.75;;
75700;SDS011;64321;48.796;44.740;2023-08-30T07:01:22;4.15;;;0.98;;
75700;SDS011;64321;48.796;44.740;2023-08-30T07:06:24;2.53;;;0.70;;
75700;SDS011;64321;48.796;44.740;2023-08-30T07:11:26;3.55;;;1.08;;
75700;SDS011;64321;48.796;44.740;2023-08-30T07:16:35;4.50;;;0.90;;
75700;SDS011;64321;48.796;44.740;2023-08-30T07:21:37;4.53;;;0.75;;
75700;SDS011;64321;48.796;44.740;2023-08-30T07:26:40;4.00;;;0.90;;
75700;SDS011;64321;48.796;44.740;2023-08-30T07:31:42;3.05;;;0.70;;
75700;SDS011;64321;48.796;44.740;2023-08-30T07:36:45;3.20;;;1.02;;
75700;SDS011;64321;48.796;44.740;2023-08-30T07:41:49;5.10;;;1.80;;
75700;SDS011;64321;48.796;44.740;2023-08-30T07:46:51;3.47;;;0.80;;
75700;SDS011;64321;48.796;44.740;2023-08-30T07:51:53;3.75;;;0.73;;
75700;SDS011;64321;48.796;44.740;2023-08-30T07:56:55;3.38;;;1.20;;
75700;SDS011;64321;48.796;44.740;2023-08-30T08:01:57;2.90;;;0.77;;
75700;SDS011;64321;48.796;44.740;2023-08-30T08:07:00;3.33;;;1.33;;
75700;SDS011;64321;48.796;44.740;2023-08-30T08:12:03;2.40;;;0.70;;
75700;SDS011;64321;48.796;44.740;2023-08-30T08:17:05;4.28;;;0.80;;
75700;SDS011;64321;48.796;44.740;2023-08-30T08:22:07;3.70;;;0.55;;
75700;SDS011;64321;48.796;44.740;2023-08-30T08:27:10;2.25;;;0.60;;
75700;SDS011;64321;48.796;44.740;2023-08-30T08:32:13;2.90;;;0.70;;
75700;SDS011;64321;48.796;44.740;2023-08-30T08:37:15;2.42;;;0.63;;
75700;SDS011;64321;48.796;44.740;2023-08-30T08:42:20;3.15;;;0.63;;
75700;SDS011;64321;48.796;44.740;2023-08-30T08:47:22;2.40;;;0.70;;
75700;SDS011;64321;48.796;44.740;2023-08-30T08:52:24;1.90;;;0.90;;
75700;SDS011;64321;48.796;44.740;2023-08-30T08:57:33;2.95;;;0.70;;
75700;SDS011;64321;48.796;44.740;2023-08-30T09:02:36;2.20;;;0.57;;
75700;SDS011;64321;48.796;44.740;2023-08-30T09:07:38;2.33;;;0.95;;
75700;SDS011;64321;48.796;44.740;2023-08-30T09:12:41;1.90;;;0.80;;
75700;SDS011;64321;48.796;44.740;2023-08-30T09:17:43;2.05;;;0.80;;
75700;SDS011;64321;48.796;44.740;2023-08-30T09:22:45;2.97;;;0.90;;
75700;SDS011;64321;48.796;44.740;2023-08-30T09:27:48;1.90;;;0.70;;
75700;SDS011;64321;48.796;44.740;2023-08-30T09:32:50;2.30;;;1.15;;
75700;SDS011;64321;48.796;44.740;2023-08-30T09:37:52;4.75;;;0.63;;
75700;SDS011;64321;48.796;44.740;2023-08-30T09:42:54;1.98;;;0.70;;
75700;SDS011;64321;48.796;44.740;2023-08-30T09:48:14;2.72;;;0.98;;
75700;SDS011;64321;48.796;44.740;2023-08-30T09:53:16;8.60;;;0.80;;
75700;SDS011;64321;48.796;44.740;2023-08-30T09:58:21;2.78;;;0.73;;
75700;SDS011;64321;48.796;44.740;2023-08-30T10:08:34;2.40;;;1.08;;
75700;SDS011;64321;48.796;44.740;2023-08-30T10:13:38;2.88;;;0.70;;
75700;SDS011;64321;48.796;44.740;2023-08-30T10:18:44;4.10;;;0.80;;
75700;SDS011;64321;48.796;44.740;2023-08-30T10:24:00;2.17;;;0.95;;
75700;SDS011;64321;48.796;44.740;2023-08-30T10:29:18;1.90;;;0.65;;
75700;SDS011;64321;48.796;44.740;2023-08-30T10:34:21;3.15;;;0.77;;
75700;SDS011;64321;48.796;44.740;2023-08-30T10:39:27;1.63;;;0.70;;
75700;SDS011;64321;48.796;44.740;2023-08-30T10:44:34;2.22;;;0.55;;
75700;SDS011;64321;48.796;44.740;2023-08-30T10:49:48;3.03;;;0.75;;
75700;SDS011;64321;48.796;44.740;2023-08-30T10:54:50;5.30;;;0.93;;
75700;SDS011;64321;48.796;44.740;2023-08-30T11:05:11;4.78;;;0.80;;
75700;SDS011;64321;48.796;44.740;2023-08-30T11:10:14;3.38;;;0.70;;
75700;SDS011;64321;48.796;44.740;2023-08-30T11:15:16;2.80;;;0.80;;
75700;SDS011;64321;48.796;44.740;2023-08-30T11:20:19;7.65;;;0.88;;
75700;SDS011;64321;48.796;44.740;2023-08-30T11:25:22;2.42;;;0.93;;
75700;SDS011;64321;48.796;44.740;2023-08-30T11:30:25;2.03;;;1.13;;
75700;SDS011;64321;48.796;44.740;2023-08-30T11:35:27;3.10;;;1.00;;
75700;SDS011;64321;48.796;44.740;2023-08-30T11:40:29;3.38;;;1.08;;
75700;SDS011;64321;48.796;44.740;2023-08-30T11:45:34;2.65;;;0.80;;
75700;SDS011;64321;48.796;44.740;2023-08-30T11:50:36;3.80;;;1.55;;
75700;SDS011;64321;48.796;44.740;2023-08-30T11:55:49;5.00;;;1.42;;
75700;SDS011;64321;48.796;44.740;2023-08-30T12:00:52;2.63;;;1.15;;
75700;SDS011;64321;48.796;44.740;2023-08-30T12:05:55;3.20;;;1.13;;
75700;SDS011;64321;48.796;44.740;2023-08-30T12:10:58;3.05;;;0.70;;
75700;SDS011;64321;48.796;44.740;2023-08-30T12:16:01;2.22;;;0.95;;
75700;SDS011;64321;48.796;44.740;2023-08-30T12:21:03;3.08;;;1.23;;
75700;SDS011;64321;48.796;44.740;2023-08-30T12:26:08;3.65;;;1.17;;
75700;SDS011;64321;48.796;44.740;2023-08-30T12:31:10;3.58;;;0.98;;
75700;SDS011;64321;48.796;44.740;2023-08-30T12:36:13;3.00;;;0.90;;
75700;SDS011;64321;48.796;44.740;2023-08-30T12:41:15;4.45;;;0.90;;
75700;SDS011;64321;48.796;44.740;2023-08-30T12:46:18;6.35;;;1.02;;
75700;SDS011;64321;48.796;44.740;2023-08-30T12:51:20;3.10;;;0.90;;
75700;SDS011;64321;48.796;44.740;2023-08-30T12:56:22;3.85;;;0.98;;
75700;SDS011;64321;48.796;44.740;2023-08-30T13:01:24;2.10;;;0.73;;
75700;SDS011;64321;48.796;44.740;2023-08-30T13:06:26;4.65;;;0.90;;
75700;SDS011;64321;48.796;44.740;2023-08-30T13:11:28;2.10;;;0.70;;
75700;SDS011;64321;48.796;44.740;2023-08-30T13:16:32;5.22;;;0.93;;
75700;SDS011;64321;48.796;44.740;2023-08-30T13:21:34;5.70;;;0.90;;
75700;SDS011;64321;48.796;44.740;2023-08-30T13:26:42;3.42;;;0.80;;
75700;SDS011;64321;48.796;44.740;2023-08-30T13:31:44;2.15;;;0.75;;
75700;SDS011;64321;48.796;44.740;2023-08-30T13:36:46;6.57;;;0.75;;
75700;SDS011;64321;48.796;44.740;2023-08-30T13:41:49;2.05;;;0.85;;
75700;SDS011;64321;48.796;44.740;2023-08-30T13:46:51;2.63;;;0.90;;
75700;SDS011;64321;48.796;44.740;2023-08-30T13:51:53;2.25;;;0.90;;
75700;SDS011;64321;48.796;44.740;2023-08-30T13:56:57;3.70;;;1.23;;
75700;SDS011;64321;48.796;44.740;2023-08-30T14:01:59;3.42;;;0.80;;
75700;SDS011;64321;48.796;44.740;2023-08-30T14:07:05;2.58;;;0.85;;
75700;SDS011;64321;48.796;44.740;2023-08-30T14:12:07;2.70;;;1.00;;
75700;SDS011;64321;48.796;44.740;2023-08-30T14:17:10;3.95;;;1.30;;
75700;SDS011;64321;48.796;44.740;2023-08-30T14:22:12;4.43;;;1.23;;
75700;SDS011;64321;48.796;44.740;2023-08-30T14:27:14;2.67;;;0.90;;
75700;SDS011;64321;48.796;44.740;2023-08-30T14:32:16;3.45;;;0.85;;
75700;SDS011;64321;48.796;44.740;2023-08-30T14:37:18;3.83;;;1.50;;
75700;SDS011;64321;48.796;44.740;2023-08-30T14:42:20;6.63;;;2.83;;
75700;SDS011;64321;48.796;44.740;2023-08-30T14:47:23;8.13;;;2.55;;
75700;SDS011;64321;48.796;44.740;2023-08-30T14:52:25;4.20;;;1.10;;
75700;SDS011;64321;48.796;44.740;2023-08-30T14:57:27;6.43;;;1.00;;
75700;SDS011;64321;48.796;44.740;2023-08-30T15:02:29;4.90;;;1.40;;
75700;SDS011;64321;48.796;44.740;2023-08-30T15:07:33;3.47;;;0.93;;
75700;SDS011;64321;48.796;44.740;2023-08-30T15:12:35;2.63;;;1.13;;
75700;SDS011;64321;48.796;44.740;2023-08-30T15:17:37;5.38;;;1.77;;
75700;SDS011;64321;48.796;44.740;2023-08-30T15:22:39;5.53;;;1.50;;
75700;SDS011;64321;48.796;44.740;2023-08-30T15:27:41;4.57;;;1.55;;
75700;SDS011;64321;48.796;44.740;2023-08-30T15:32:44;6.22;;;1.30;;
75700;SDS011;64321;48.796;44.740;2023-08-30T15:37:46;3.17;;;1.25;;
75700;SDS011;64321;48.796;44.740;2023-08-30T15:42:48;6.97;;;1.50;;
75700;SDS011;64321;48.796;44.740;2023-08-30T15:47:50;7.55;;;2.03;;
75700;SDS011;64321;48.796;44.740;2023-08-30T15:52:53;8.35;;;1.58;;
75700;SDS011;64321;48.796;44.740;2023-08-30T15:57:56;8.40;;;2.35;;
75700;SDS011;64321;48.796;44.740;2023-08-30T16:02:58;7.93;;;2.17;;
75700;SDS011;64321;48.796;44.740;2023-08-30T16:08:02;8.98;;;3.00;;
75700;SDS011;64321;48.796;44.740;2023-08-30T16:13:04;9.52;;;3.20;;
75700;SDS011;64321;48.796;44.740;2023-08-30T16:18:06;12.77;;;3.63;;
75700;SDS011;64321;48.796;44.740;2023-08-30T16:23:09;8.65;;;3.70;;
75700;SDS011;64321;48.796;44.740;2023-08-30T16:28:12;15.73;;;5.28;;
75700;SDS011;64321;48.796;44.740;2023-08-30T16:33:14;13.75;;;3.85;;
75700;SDS011;64321;48.796;44.740;2023-08-30T16:38:19;10.88;;;4.60;;
75700;SDS011;64321;48.796;44.740;2023-08-30T16:43:22;14.40;;;3.72;;
75700;SDS011;64321;48.796;44.740;2023-08-30T16:48:25;14.13;;;4.13;;
75700;SDS011;64321;48.796;44.740;2023-08-30T16:53:27;13.80;;;4.00;;
75700;SDS011;64321;48.796;44.740;2023-08-30T16:58:29;11.75;;;3.60;;
75700;SDS011;64321;48.796;44.740;2023-08-30T17:03:32;9.70;;;3.67;;
75700;SDS011;64321;48.796;44.740;2023-08-30T17:08:35;16.42;;;3.95;;
75700;SDS011;64321;48.796;44.740;2023-08-30T17:13:37;18.42;;;5.20;;
75700;SDS011;64321;48.796;44.740;2023-08-30T17:18:40;19.63;;;6.18;;
75700;SDS011;64321;48.796;44.740;2023-08-30T17:23:42;21.13;;;8.57;;
75700;SDS011;64321;48.796;44.740;2023-08-30T17:28:44;22.60;;;8.80;;
75700;SDS011;64321;48.796;44.740;2023-08-30T17:33:46;26.65;;;8.20;;
75700;SDS011;64321;48.796;44.740;2023-08-30T17:38:48;21.60;;;6.88;;
75700;SDS011;64321;48.796;44.740;2023-08-30T17:43:51;19.67;;;6.10;;
75700;SDS011;64321;48.796;44.740;2023-08-30T17:48:53;18.73;;;6.20;;
75700;SDS011;64321;48.796;44.740;2023-08-30T17:53:55;23.60;;;5.32;;
75700;SDS011;64321;48.796;44.740;2023-08-30T17:58:58;22.50;;;6.78;;
75700;SDS011;64321;48.796;44.740;2023-08-30T18:04:00;24.80;;;5.40;;
75700;SDS011;64321;48.796;44.740;2023-08-30T18:09:03;25.88;;;6.70;;
75700;SDS011;64321;48.796;44.740;2023-08-30T18:14:11;21.88;;;5.60;;
75700;SDS011;64321;48.796;44.740;2023-08-30T18:19:13;23.75;;;6.47;;
75700;SDS011;64321;48.796;44.740;2023-08-30T18:24:16;15.70;;;5.53;;
75700;SDS011;64321;48.796;44.740;2023-08-30T18:29:19;26.73;;;8.00;;
75700;SDS011;64321;48.796;44.740;2023-08-30T18:34:22;28.55;;;7.47;;
75700;SDS011;64321;48.796;44.740;2023-08-30T18:39:24;29.73;;;8.10;;
75700;SDS011;64321;48.796;44.740;2023-08-30T18:44:27;22.67;;;7.85;;
75700;SDS011;64321;48.796;44.740;2023-08-30T18:49:29;26.20;;;6.90;;
75700;SDS011;64321;48.796;44.740;2023-08-30T18:54:31;24.65;;;7.63;;
75700;SDS011;64321;48.796;44.740;2023-08-30T18:59:33;26.30;;;8.07;;
75700;SDS011;64321;48.796;44.740;2023-08-30T19:04:35;27.00;;;7.28;;
75700;SDS011;64321;48.796;44.740;2023-08-30T19:09:39;29.52;;;10.90;;
75700;SDS011;64321;48.796;44.740;2023-08-30T19:14:42;19.75;;;6.95;;
75700;SDS011;64321;48.796;44.740;2023-08-30T19:19:44;29.33;;;8.40;;
75700;SDS011;64321;48.796;44.740;2023-08-30T19:24:47;26.10;;;9.10;;
75700;SDS011;64321;48.796;44.740;2023-08-30T19:29:49;24.30;;;9.60;;
75700;SDS011;64321;48.796;44.740;2023-08-30T19:34:52;27.40;;;9.32;;
75700;SDS011;64321;48.796;44.740;2023-08-30T19:39:54;25.90;;;8.98;;
75700;SDS011;64321;48.796;44.740;2023-08-30T19:44:56;29.75;;;9.50;;
75700;SDS011;64321;48.796;44.740;2023-08-30T19:50:06;25.33;;;9.10;;
75700;SDS011;64321;48.796;44.740;2023-08-30T19:55:08;27.95;;;10.13;;
75700;SDS011;64321;48.796;44.740;2023-08-30T20:00:10;28.35;;;10.02;;
75700;SDS011;64321;48.796;44.740;2023-08-30T20:05:13;28.83;;;8.90;;
75700;SDS011;64321;48.796;44.740;2023-08-30T20:10:16;33.05;;;8.93;;
75700;SDS011;64321;48.796;44.740;2023-08-30T20:15:19;28.17;;;8.02;;
75700;SDS011;64321;48.796;44.740;2023-08-30T20:20:22;27.63;;;7.78;;
75700;SDS011;64321;48.796;44.740;2023-08-30T20:25:24;26.08;;;7.72;;
75700;SDS011;64321;48.796;44.740;2023-08-30T20:30:27;25.85;;;8.18;;
75700;SDS011;64321;48.796;44.740;2023-08-30T20:35:29;26.40;;;8.55;;
75700;SDS011;64321;48.796;44.740;2023-08-30T20:40:31;32.53;;;8.13;;
75700;SDS011;64321;48.796;44.740;2023-08-30T20:45:33;30.23;;;8.00;;
75700;SDS011;64321;48.796;44.740;2023-08-30T20:50:36;26.38;;;7.60;;
75700;SDS011;64321;48.796;44.740;2023-08-30T20:55:41;27.50;;;7.45;;
75700;SDS011;64321;48.796;44.740;2023-08-30T21:00:44;21.65;;;6.90;;
75700;SDS011;64321;48.796;44.740;2023-08-30T21:05:55;27.27;;;7.63;;
75700;SDS011;64321;48.796;44.740;2023-08-30T21:10:57;26.05;;;7.80;;
75700;SDS011;64321;48.796;44.740;2023-08-30T21:15:59;24.55;;;7.88;;
75700;SDS011;64321;48.796;44.740;2023-08-30T21:21:01;24.27;;;8.70;;
75700;SDS011;64321;48.796;44.740;2023-08-30T21:26:04;25.00;;;8.40;;
75700;SDS011;64321;48.796;44.740;2023-08-30T21:31:07;20.83;;;8.20;;
75700;SDS011;64321;48.796;44.740;2023-08-30T21:36:10;24.92;;;11.02;;
75700;SDS011;64321;48.796;44.740;2023-08-30T21:41:12;22.60;;;9.18;;
75700;SDS011;64321;48.796;44.740;2023-08-30T21:46:14;26.08;;;10.70;;
75700;SDS011;64321;48.796;44.740;2023-08-30T21:51:17;22.80;;;11.75;;
75700;SDS011;64321;48.796;44.740;2023-08-30T21:56:19;24.77;;;10.65;;
75700;SDS011;64321;48.796;44.740;2023-08-30T22:01:22;23.02;;;10.52;;
75700;SDS011;64321;48.796;44.740;2023-08-30T22:06:24;26.60;;;11.57;;
75700;SDS011;64321;48.796;44.740;2023-08-30T22:11:26;28.30;;;11.02;;
75700;SDS011;64321;48.796;44.740;2023-08-30T22:16:28;27.73;;;10.75;;
75700;SDS011;64321;48.796;44.740;2023-08-30T22:21:31;23.60;;;9.77;;
75700;SDS011;64321;48.796;44.740;2023-08-30T22:26:34;27.40;;;11.10;;
75700;SDS011;64321;48.796;44.740;2023-08-30T22:31:36;18.88;;;9.70;;
75700;SDS011;64321;48.796;44.740;2023-08-30T22:36:39;18.25;;;9.20;;
75700;SDS011;64321;48.796;44.740;2023-08-30T22:41:43;19.83;;;7.20;;
75700;SDS011;64321;48.796;44.740;2023-08-30T22:46:46;18.70;;;6.07;;
75700;SDS011;64321;48.796;44.740;2023-08-30T22:51:48;18.17;;;8.52;;
75700;SDS011;64321;48.796;44.740;2023-08-30T22:56:55;22.15;;;10.02;;
75700;SDS011;64321;48.796;44.740;2023-08-30T23:01:57;26.08;;;10.95;;
75700;SDS011;64321;48.796;44.740;2023-08-30T23:07:00;22.88;;;9.27;;
75700;SDS011;64321;48.796;44.740;2023-08-30T23:12:02;23.33;;;9.85;;
75700;SDS011;64321;48.796;44.740;2023-08-30T23:17:04;24.42;;;8.75;;
75700;SDS011;64321;48.796;44.740;2023-08-30T23:22:06;23.38;;;10.07;;
75700;SDS011;64321;48.796;44.740;2023-08-30T23:27:09;20.55;;;8.77;;
75700;SDS011;64321;48.796;44.740;2023-08-30T23:32:11;22.20;;;9.45;;
75700;SDS011;64321;48.796;44.740;2023-08-30T23:37:13;21.75;;;8.45;;
75700;SDS011;64321;48.796;44.740;2023-08-30T23:42:15;22.92;;;8.75;;
75700;SDS011;64321;48.796;44.740;2023-08-30T23:47:17;20.85;;;7.32;;
75700;SDS011;64321;48.796;44.740;2023-08-30T23:52:20;19.73;;;5.80;;
75700;SDS011;64321;48.796;44.740;2023-08-30T23:57:22;19.00;;;5.47;;
